createdAt,value
2022-12-04T00:01:24.389Z,17.63
2022-12-04T00:03:56.860Z,18.03
2022-12-04T00:06:25.616Z,16.90
2022-12-04T00:08:53.777Z,17.80
2022-12-04T00:11:24.581Z,18.53
2022-12-04T00:13:52.594Z,20.77
2022-12-04T00:16:23.464Z,17.73
2022-12-04T00:18:51.673Z,17.97
2022-12-04T00:21:20.013Z,18.33
2022-12-04T00:23:48.286Z,18.73
2022-12-04T00:26:19.615Z,18.73
2022-12-04T00:28:47.816Z,17.63
2022-12-04T00:31:18.637Z,17.57
2022-12-04T00:33:47.108Z,17.60
2022-12-04T00:36:17.141Z,18.03
2022-12-04T00:38:44.811Z,19.50
2022-12-04T00:41:15.205Z,17.37
2022-12-04T00:43:43.083Z,18.00
2022-12-04T00:46:10.771Z,19.27
2022-12-04T00:48:39.079Z,18.53
2022-12-04T00:51:10.407Z,18.33
2022-12-04T00:53:39.205Z,18.00
2022-12-04T00:56:09.740Z,18.53
2022-12-04T00:58:37.372Z,19.27
2022-12-04T01:01:13.966Z,17.97
2022-12-04T01:03:42.170Z,19.43
2022-12-04T01:06:19.725Z,17.80
2022-12-04T01:08:48.622Z,18.90
2022-12-04T01:11:17.533Z,17.70
2022-12-04T01:13:45.337Z,17.93
2022-12-04T01:16:25.425Z,18.47
2022-12-04T01:18:53.339Z,17.50
2022-12-04T01:21:21.138Z,16.50
2022-12-04T01:23:49.203Z,18.50
2022-12-04T01:26:16.746Z,19.67
2022-12-04T01:28:44.451Z,18.53
2022-12-04T01:31:14.847Z,18.60
2022-12-04T01:33:43.354Z,19.43
2022-12-04T01:36:15.358Z,19.63
2022-12-04T01:38:43.042Z,17.87
2022-12-04T01:41:12.234Z,17.47
2022-12-04T01:43:40.734Z,18.57
2022-12-04T01:46:08.885Z,19.53
2022-12-04T01:48:53.814Z,19.10
2022-12-04T01:51:28.090Z,18.47
2022-12-04T01:54:17.127Z,18.77
2022-12-04T01:56:52.541Z,18.93
2022-12-04T01:59:26.395Z,19.50
2022-12-04T02:01:59.328Z,18.47
2022-12-04T02:04:27.050Z,19.53
2022-12-04T02:06:54.610Z,18.67
2022-12-04T02:09:26.756Z,18.50
2022-12-04T02:12:35.378Z,19.17
2022-12-04T02:15:11.627Z,18.30
2022-12-04T02:17:53.765Z,19.03
2022-12-04T02:20:33.697Z,18.97
2022-12-04T02:23:22.416Z,19.73
2022-12-04T02:26:11.305Z,19.03
2022-12-04T02:28:49.076Z,20.60
2022-12-04T02:31:46.071Z,18.43
2022-12-04T02:34:21.366Z,18.60
2022-12-04T02:37:10.940Z,17.87
2022-12-04T02:39:44.410Z,18.67
2022-12-04T02:42:24.654Z,18.83
2022-12-04T02:45:01.307Z,19.73
2022-12-04T02:47:30.612Z,18.63
2022-12-04T02:50:05.429Z,18.73
2022-12-04T02:52:38.032Z,19.00
2022-12-04T02:55:16.365Z,18.27
2022-12-04T02:57:50.032Z,18.07
2022-12-04T03:00:18.840Z,19.23
2022-12-04T03:02:58.805Z,17.13
2022-12-04T03:05:39.673Z,17.90
2022-12-04T03:08:18.870Z,18.27
2022-12-04T03:10:57.509Z,18.53
2022-12-04T03:13:43.043Z,18.23
2022-12-04T03:16:16.328Z,18.20
2022-12-04T03:18:51.971Z,18.27
2022-12-04T03:21:23.422Z,18.00
2022-12-04T03:24:01.658Z,17.77
2022-12-04T03:26:35.199Z,17.57
2022-12-04T03:29:20.653Z,17.50
2022-12-04T03:31:56.421Z,17.80
2022-12-04T03:34:46.588Z,18.67
2022-12-04T03:37:18.172Z,17.37
2022-12-04T03:40:12.150Z,18.67
2022-12-04T03:42:46.537Z,18.10
2022-12-04T03:45:26.834Z,19.10
2022-12-04T03:48:02.972Z,18.50
2022-12-04T03:50:35.478Z,19.30
2022-12-04T03:53:20.523Z,18.37
2022-12-04T03:56:14.022Z,18.07
2022-12-04T03:58:47.887Z,18.07
2022-12-04T04:01:20.193Z,19.17
2022-12-04T04:03:53.370Z,18.20
2022-12-04T04:06:28.093Z,17.70
2022-12-04T04:08:59.116Z,17.37
2022-12-04T04:11:34.474Z,18.27
2022-12-04T04:14:34.188Z,18.33
2022-12-04T04:17:33.548Z,17.80
2022-12-04T04:20:27.652Z,18.27
2022-12-04T04:23:16.977Z,17.20
2022-12-04T04:25:46.789Z,18.07
2022-12-04T04:28:34.610Z,17.80
2022-12-04T04:31:12.213Z,18.40
2022-12-04T04:34:05.790Z,17.33
2022-12-04T04:36:54.056Z,18.07
2022-12-04T04:39:39.857Z,17.20
2022-12-04T04:42:26.704Z,17.93
2022-12-04T04:45:18.830Z,17.70
2022-12-04T04:48:00.234Z,18.17
2022-12-04T04:50:29.244Z,18.17
2022-12-04T04:53:02.314Z,17.90
2022-12-04T04:55:34.415Z,17.57
2022-12-04T04:58:11.929Z,17.53
2022-12-04T05:00:41.263Z,17.57
2022-12-04T05:03:09.849Z,17.47
2022-12-04T05:05:37.439Z,17.07
2022-12-04T05:08:05.368Z,16.57
2022-12-04T05:10:32.953Z,17.20
2022-12-04T05:13:00.581Z,17.83
2022-12-04T05:15:28.148Z,17.30
2022-12-04T05:17:55.828Z,16.40
2022-12-04T05:20:23.397Z,16.87
2022-12-04T05:22:50.959Z,17.83
2022-12-04T05:25:18.538Z,16.67
2022-12-04T05:27:46.140Z,16.90
2022-12-04T05:30:16.692Z,17.00
2022-12-04T05:32:44.286Z,16.93
2022-12-04T05:35:11.998Z,17.00
2022-12-04T05:37:40.480Z,16.90
2022-12-04T05:40:08.939Z,16.33
2022-12-04T05:42:37.333Z,17.20
2022-12-04T05:45:05.373Z,16.80
2022-12-04T05:47:41.324Z,17.30
2022-12-04T05:50:10.833Z,16.40
2022-12-04T05:52:38.838Z,17.20
2022-12-04T05:55:06.806Z,16.13
2022-12-04T05:57:34.390Z,17.10
2022-12-04T06:00:02.026Z,15.90
2022-12-04T06:02:29.669Z,16.60
2022-12-04T06:04:57.317Z,17.20
2022-12-04T06:07:24.872Z,16.07
2022-12-04T06:09:55.332Z,15.53
2022-12-04T06:12:23.222Z,16.60
2022-12-04T06:14:50.862Z,16.07
2022-12-04T06:17:18.418Z,16.40
2022-12-04T06:19:46.123Z,16.10
2022-12-04T06:22:13.755Z,16.43
2022-12-04T06:24:41.352Z,16.70
2022-12-04T06:27:27.363Z,15.67
2022-12-04T06:29:55.845Z,15.73
2022-12-04T06:32:23.622Z,16.67
2022-12-04T06:34:52.939Z,16.97
2022-12-04T06:37:24.750Z,16.10
2022-12-04T06:39:52.473Z,16.50
2022-12-04T06:42:20.207Z,15.43
2022-12-04T06:44:48.692Z,15.97
2022-12-04T06:47:16.267Z,16.73
2022-12-04T06:49:45.826Z,16.07
2022-12-04T06:52:13.390Z,15.10
2022-12-04T06:54:41.010Z,15.93
2022-12-04T06:57:14.073Z,15.87
2022-12-04T06:59:50.477Z,16.23
2022-12-04T07:02:32.923Z,17.07
2022-12-04T07:05:00.532Z,16.73
2022-12-04T07:07:28.147Z,16.33
2022-12-04T07:09:56.361Z,17.27
2022-12-04T07:12:36.358Z,17.20
2022-12-04T07:15:08.845Z,16.67
2022-12-04T07:17:36.643Z,15.67
2022-12-04T07:20:10.509Z,14.60
2022-12-04T07:22:43.686Z,13.87
2022-12-04T07:25:11.386Z,14.30
2022-12-04T07:27:39.110Z,13.97
2022-12-04T07:30:15.698Z,13.93
2022-12-04T07:32:46.459Z,14.43
2022-12-04T07:35:20.054Z,13.53
2022-12-04T07:37:58.987Z,14.50
2022-12-04T07:40:32.814Z,14.30
2022-12-04T07:43:11.414Z,13.50
2022-12-04T07:45:53.053Z,12.87
2022-12-04T07:48:20.898Z,13.13
2022-12-04T07:50:59.612Z,13.03
2022-12-04T07:53:38.977Z,12.47
2022-12-04T07:56:11.947Z,12.47
2022-12-04T07:58:52.943Z,12.43
2022-12-04T08:01:28.397Z,11.70
2022-12-04T08:03:57.730Z,11.00
2022-12-04T08:06:28.467Z,10.43
2022-12-04T08:08:57.315Z,10.97
2022-12-04T08:11:29.714Z,11.60
2022-12-04T08:14:12.409Z,10.97
2022-12-04T08:16:40.215Z,10.90
2022-12-04T08:19:07.779Z,9.80
2022-12-04T08:21:35.572Z,9.67
2022-12-04T08:24:03.307Z,10.23
2022-12-04T08:26:31.568Z,10.83
2022-12-04T08:29:01.497Z,11.03
2022-12-04T08:31:32.883Z,11.97
2022-12-04T08:34:03.720Z,10.80
2022-12-04T08:36:31.831Z,12.07
2022-12-04T08:38:59.475Z,12.93
2022-12-04T08:41:27.541Z,11.17
2022-12-04T08:43:55.986Z,9.37
2022-12-04T08:46:29.767Z,9.73
2022-12-04T08:48:58.114Z,9.93
2022-12-04T08:51:31.242Z,10.47
2022-12-04T08:54:01.198Z,9.50
2022-12-04T08:56:30.857Z,9.67
2022-12-04T08:58:59.511Z,10.27
2022-12-04T09:01:32.804Z,10.17
2022-12-04T09:04:07.772Z,9.90
2022-12-04T09:06:35.564Z,9.77
2022-12-04T09:09:03.473Z,8.77
2022-12-04T09:11:32.857Z,10.73
2022-12-04T09:14:03.170Z,9.30
2022-12-04T09:16:31.173Z,9.07
2022-12-04T09:18:58.824Z,10.63
2022-12-04T09:21:26.699Z,11.80
2022-12-04T09:23:54.334Z,10.40
2022-12-04T09:26:26.194Z,10.00
2022-12-04T09:28:55.316Z,9.63
2022-12-04T09:31:24.386Z,9.90
2022-12-04T09:33:57.584Z,11.03
2022-12-04T09:36:25.378Z,11.10
2022-12-04T09:38:57.896Z,11.30
2022-12-04T09:41:30.971Z,12.13
2022-12-04T09:44:05.352Z,10.37
2022-12-04T09:46:37.639Z,10.88
2022-12-04T09:49:13.966Z,11.87
2022-12-04T09:51:42.803Z,11.57
2022-12-04T09:54:29.296Z,10.20
2022-12-04T09:57:05.555Z,10.53
2022-12-04T09:59:33.267Z,11.43
2022-12-04T10:02:19.091Z,9.70
2022-12-04T10:04:47.413Z,9.97
2022-12-04T10:07:46.816Z,9.50
2022-12-04T10:14:15.316Z,13.10
2022-12-04T10:17:19.678Z,11.93
2022-12-04T10:20:02.432Z,10.43
2022-12-04T10:22:36.613Z,10.47
2022-12-04T10:25:26.758Z,10.87
2022-12-04T10:28:05.112Z,10.10
2022-12-04T10:30:38.827Z,9.40
2022-12-04T10:33:47.354Z,9.80
2022-12-04T10:36:27.463Z,9.00
2022-12-04T10:39:16.048Z,9.80
2022-12-04T10:42:20.690Z,10.03
2022-12-04T10:45:24.171Z,9.97
2022-12-04T10:48:03.400Z,10.13
2022-12-04T10:51:00.089Z,11.33
2022-12-04T10:53:41.474Z,11.00
2022-12-04T10:56:51.587Z,9.87
2022-12-04T10:59:22.236Z,10.87
2022-12-04T11:02:20.159Z,10.23
2022-12-04T11:05:05.999Z,11.30
2022-12-04T11:07:52.188Z,9.63
2022-12-04T11:10:46.484Z,9.77
2022-12-04T11:13:35.336Z,8.83
2022-12-04T11:16:57.988Z,9.33
2022-12-04T11:19:40.096Z,9.53
2022-12-04T11:22:19.738Z,9.70
2022-12-04T11:25:06.531Z,11.50
2022-12-04T11:27:38.418Z,12.03
2022-12-04T11:30:16.382Z,10.47
2022-12-04T11:32:47.709Z,10.00
2022-12-04T11:35:21.067Z,10.53
2022-12-04T11:37:55.509Z,10.07
2022-12-04T11:40:25.095Z,8.60
2022-12-04T11:43:02.400Z,9.60
2022-12-04T11:45:30.094Z,9.57
2022-12-04T11:48:02.491Z,9.50
2022-12-04T11:50:35.713Z,9.40
2022-12-04T11:53:28.578Z,10.40
2022-12-04T11:56:34.522Z,9.20
2022-12-04T11:59:33.460Z,9.80
2022-12-04T12:02:45.225Z,12.00
2022-12-04T12:06:09.333Z,13.60
2022-12-04T12:08:58.756Z,14.77
2022-12-04T12:11:40.838Z,14.07
2022-12-04T12:14:29.946Z,17.67
2022-12-04T12:17:22.466Z,16.27
2022-12-04T12:20:22.633Z,15.87
2022-12-04T12:23:22.946Z,16.90
2022-12-04T12:26:14.047Z,21.70
2022-12-04T12:29:09.032Z,20.17
2022-12-04T12:31:52.897Z,18.40
2022-12-04T12:34:37.737Z,16.43
2022-12-04T12:37:33.068Z,16.93
2022-12-04T12:40:35.170Z,16.87
2022-12-04T12:43:06.218Z,18.57
2022-12-04T12:45:41.020Z,17.63
2022-12-04T12:48:20.909Z,18.00
2022-12-04T12:51:14.890Z,21.00
2022-12-04T12:53:45.693Z,21.33
2022-12-04T12:56:17.580Z,20.10
2022-12-04T12:58:51.773Z,23.97
2022-12-04T13:01:42.537Z,20.37
2022-12-04T13:04:51.494Z,19.30
2022-12-04T13:07:21.232Z,18.93
2022-12-04T13:09:58.289Z,19.80
2022-12-04T13:12:28.092Z,17.47
2022-12-04T13:14:57.413Z,18.63
2022-12-04T13:17:47.992Z,18.03
2022-12-04T13:20:25.240Z,18.40
2022-12-04T13:22:55.686Z,16.57
2022-12-04T13:25:36.952Z,16.97
2022-12-04T13:28:24.648Z,22.10
2022-12-04T13:31:21.706Z,21.27
2022-12-04T13:34:21.863Z,16.70
2022-12-04T13:37:23.031Z,16.10
2022-12-04T13:40:09.424Z,17.90
2022-12-04T13:42:37.414Z,18.30
2022-12-04T13:45:23.932Z,19.80
2022-12-04T13:48:00.973Z,17.70
2022-12-04T13:50:38.188Z,16.73
2022-12-04T13:53:06.326Z,18.63
2022-12-04T13:55:37.086Z,17.13
2022-12-04T13:58:13.528Z,18.23
2022-12-04T14:00:43.600Z,17.90
2022-12-04T14:03:51.055Z,18.27
2022-12-04T14:06:46.678Z,18.07
2022-12-04T14:09:44.832Z,17.63
2022-12-04T14:12:20.052Z,18.07
2022-12-04T14:15:07.362Z,20.17
2022-12-04T14:17:46.324Z,19.00
2022-12-04T14:20:29.574Z,19.47
2022-12-04T14:23:37.142Z,20.83
2022-12-04T14:26:33.117Z,17.90
2022-12-04T14:29:39.372Z,19.23
2022-12-04T14:32:21.546Z,18.57
2022-12-04T14:35:06.975Z,18.27
2022-12-04T14:37:52.509Z,17.53
2022-12-04T14:40:40.248Z,17.23
2022-12-04T14:43:24.447Z,17.00
2022-12-04T14:46:13.981Z,18.47
2022-12-04T14:49:13.296Z,18.37
2022-12-04T14:51:47.120Z,17.43
2022-12-04T14:54:39.545Z,16.93
2022-12-04T14:57:34.477Z,17.00
2022-12-04T15:00:05.418Z,18.43
2022-12-04T15:02:44.345Z,16.10
2022-12-04T15:05:37.211Z,17.33
2022-12-04T15:08:17.790Z,18.50
2022-12-04T15:11:09.799Z,18.43
2022-12-04T15:13:43.892Z,18.90
2022-12-04T15:16:25.958Z,18.93
2022-12-04T15:19:29.776Z,17.00
2022-12-04T15:22:00.282Z,15.30
2022-12-04T15:24:41.246Z,17.47
2022-12-04T15:27:10.928Z,19.77
2022-12-04T15:29:48.536Z,17.90
2022-12-04T15:32:27.697Z,20.23
2022-12-04T15:35:05.619Z,18.03
2022-12-04T15:37:34.069Z,18.67
2022-12-04T15:40:10.159Z,17.47
2022-12-04T15:42:40.538Z,17.50
2022-12-04T15:45:15.308Z,18.63
2022-12-04T15:47:47.584Z,16.73
2022-12-04T15:50:30.111Z,17.27
2022-12-04T15:53:22.599Z,19.60
2022-12-04T15:58:55.633Z,19.40
2022-12-04T16:01:23.649Z,17.13
2022-12-04T16:03:58.651Z,17.83
2022-12-04T16:06:35.708Z,18.87
2022-12-04T16:09:31.279Z,19.20
2022-12-04T16:12:07.557Z,18.90
2022-12-04T16:14:48.477Z,21.47
2022-12-04T16:17:22.355Z,20.07
2022-12-04T16:19:54.592Z,17.77
2022-12-04T16:22:26.431Z,18.13
2022-12-04T16:25:05.145Z,20.27
2022-12-04T16:27:36.797Z,20.33
2022-12-04T16:30:19.926Z,21.37
2022-12-04T16:35:35.689Z,21.17
2022-12-04T16:38:03.328Z,21.20
2022-12-04T16:40:30.930Z,20.60
2022-12-04T16:42:58.579Z,20.57
2022-12-04T16:45:32.928Z,22.20
2022-12-04T16:48:00.707Z,21.03
2022-12-04T16:50:28.451Z,21.37
2022-12-04T16:52:56.176Z,19.63
2022-12-04T16:55:32.576Z,22.47
2022-12-04T17:01:00.273Z,24.00
2022-12-04T17:03:30.983Z,22.37
2022-12-04T17:06:09.693Z,22.07
2022-12-04T17:08:45.626Z,23.20
2022-12-04T17:11:14.604Z,22.73
2022-12-04T17:13:42.344Z,26.33
2022-12-04T17:16:14.671Z,24.67
2022-12-04T17:18:44.418Z,25.33
2022-12-04T17:21:29.957Z,26.97
2022-12-04T17:24:23.328Z,28.23
2022-12-04T17:26:50.943Z,25.23
2022-12-04T17:32:37.975Z,23.27
2022-12-04T17:35:16.238Z,23.23
2022-12-04T17:37:49.052Z,25.13
2022-12-04T17:40:22.085Z,24.20
2022-12-04T17:43:01.685Z,26.20
2022-12-04T17:45:37.994Z,26.27
2022-12-04T17:48:13.204Z,27.77
2022-12-04T17:50:46.650Z,25.40
2022-12-04T17:53:14.486Z,25.90
2022-12-04T17:55:45.041Z,22.73
2022-12-04T17:58:24.505Z,26.50
2022-12-04T18:00:52.149Z,24.03
2022-12-04T18:04:09.770Z,24.07
2022-12-04T18:10:21.573Z,24.33
2022-12-04T18:13:19.669Z,24.83
2022-12-04T18:16:05.848Z,23.07
2022-12-04T18:18:39.209Z,23.17
2022-12-04T18:21:17.760Z,23.13
2022-12-04T18:24:40.708Z,24.90
2022-12-04T18:27:11.867Z,26.00
2022-12-04T18:29:45.484Z,23.53
2022-12-04T18:32:13.160Z,25.63
2022-12-04T18:34:40.866Z,25.33
2022-12-04T18:37:08.762Z,29.03
2022-12-04T18:39:36.295Z,25.60
2022-12-04T18:42:04.042Z,24.73
2022-12-04T18:44:33.076Z,25.60
2022-12-04T18:47:03.537Z,29.77
2022-12-04T18:49:31.149Z,26.10
2022-12-04T18:51:59.773Z,27.63
2022-12-04T18:54:27.366Z,25.07
2022-12-04T18:56:55.429Z,25.33
2022-12-04T18:59:25.743Z,24.20
2022-12-04T19:01:54.149Z,25.90
2022-12-04T19:04:24.061Z,24.30
2022-12-04T19:06:56.038Z,24.37
2022-12-04T19:10:02.176Z,25.43
2022-12-04T19:12:16.159Z,26.70
2022-12-04T19:14:43.785Z,25.37
2022-12-04T19:17:11.770Z,27.03
2022-12-04T19:19:39.370Z,23.10
2022-12-04T19:22:07.059Z,22.97
2022-12-04T19:24:34.683Z,24.20
2022-12-04T19:27:09.988Z,23.03
2022-12-04T19:29:42.399Z,20.10
2022-12-04T19:32:11.109Z,22.73
2022-12-04T19:38:23.128Z,21.50
2022-12-04T19:40:50.816Z,20.53
2022-12-04T19:43:18.406Z,22.10
2022-12-04T19:45:49.511Z,22.40
2022-12-04T19:48:17.164Z,21.20
2022-12-04T19:50:44.758Z,22.50
2022-12-04T19:53:12.399Z,27.00
2022-12-04T19:55:40.057Z,24.40
2022-12-04T19:58:07.600Z,23.17
2022-12-04T20:00:35.260Z,21.80
2022-12-04T20:03:05.525Z,23.77
2022-12-04T20:08:51.545Z,22.10
2022-12-04T20:11:28.229Z,22.83
2022-12-04T20:14:16.612Z,21.57
2022-12-04T20:16:54.810Z,21.43
2022-12-04T20:19:32.025Z,22.10
2022-12-04T20:22:12.430Z,20.07
2022-12-04T20:24:43.059Z,21.80
2022-12-04T20:27:18.170Z,20.53
2022-12-04T20:29:51.722Z,20.67
2022-12-04T20:32:20.053Z,25.47
2022-12-04T20:34:58.387Z,28.50
2022-12-04T20:37:33.806Z,22.40
2022-12-04T20:40:13.652Z,23.77
2022-12-04T20:42:50.920Z,22.67
2022-12-04T20:45:32.851Z,20.43
2022-12-04T20:48:15.473Z,19.03
2022-12-04T20:50:55.322Z,21.13
2022-12-04T20:56:40.618Z,18.53
2022-12-04T20:59:27.202Z,20.07
2022-12-04T21:02:08.324Z,18.03
2022-12-04T21:04:51.916Z,21.30
2022-12-04T21:07:22.991Z,20.47
2022-12-04T21:10:01.161Z,18.80
2022-12-04T21:12:51.021Z,19.33
2022-12-04T21:15:37.659Z,19.07
2022-12-04T21:18:05.524Z,18.27
2022-12-04T21:20:33.554Z,18.23
2022-12-04T21:23:01.772Z,18.03
2022-12-04T21:25:30.251Z,17.93
2022-12-04T21:27:58.390Z,16.93
2022-12-04T21:30:27.109Z,19.63
2022-12-04T21:32:55.202Z,18.77
2022-12-04T21:35:24.143Z,17.93
2022-12-04T21:37:52.103Z,19.63
2022-12-04T21:40:20.026Z,19.77
2022-12-04T21:42:50.283Z,19.87
2022-12-04T21:45:18.258Z,18.70
2022-12-04T21:47:46.004Z,18.10
2022-12-04T21:50:16.734Z,19.87
2022-12-04T21:52:44.352Z,20.50
2022-12-04T21:55:12.021Z,19.70
2022-12-04T21:57:39.679Z,17.10
2022-12-04T22:00:08.016Z,18.90
2022-12-04T22:02:37.842Z,17.73
2022-12-04T22:05:05.980Z,16.90
2022-12-04T22:07:33.626Z,16.77
2022-12-04T22:10:05.532Z,17.10
2022-12-04T22:12:52.128Z,18.97
2022-12-04T22:15:19.759Z,19.83
2022-12-04T22:17:47.468Z,19.03
2022-12-04T22:20:15.417Z,17.93
2022-12-04T22:22:43.083Z,19.40
2022-12-04T22:25:10.660Z,19.00
2022-12-04T22:27:38.224Z,17.47
2022-12-04T22:30:06.791Z,18.07
2022-12-04T22:32:34.509Z,19.00
2022-12-04T22:35:02.130Z,17.53
2022-12-04T22:37:29.758Z,18.03
2022-12-04T22:39:57.684Z,20.57
2022-12-04T22:42:25.504Z,17.07
2022-12-04T22:44:53.096Z,17.30
2022-12-04T22:47:20.700Z,19.90
2022-12-04T22:49:48.284Z,16.40
2022-12-04T22:52:15.988Z,19.43
2022-12-04T22:54:43.569Z,20.20
2022-12-04T22:57:11.604Z,17.83
2022-12-04T22:59:39.238Z,19.63
2022-12-04T23:02:06.827Z,16.40
2022-12-04T23:04:34.482Z,21.50
2022-12-04T23:07:02.124Z,21.80
2022-12-04T23:09:30.108Z,17.00
2022-12-04T23:11:57.789Z,18.50
2022-12-04T23:14:27.035Z,16.00
2022-12-04T23:16:55.502Z,19.10
2022-12-04T23:19:23.712Z,18.67
2022-12-04T23:21:56.935Z,16.50
2022-12-04T23:24:25.443Z,16.37
2022-12-04T23:26:53.298Z,15.50
2022-12-04T23:29:51.492Z,16.17
2022-12-04T23:32:08.541Z,15.93
2022-12-04T23:34:36.238Z,18.53
2022-12-04T23:37:03.912Z,16.63
2022-12-04T23:39:31.501Z,16.10
2022-12-04T23:41:59.108Z,16.77
2022-12-04T23:44:26.683Z,15.93
2022-12-04T23:46:54.300Z,16.60
2022-12-04T23:49:21.991Z,17.87
2022-12-04T23:51:49.747Z,18.13
2022-12-04T23:54:17.390Z,17.87
2022-12-04T23:56:45.020Z,19.23
2022-12-04T23:59:12.711Z,17.73
